Time;durP1;ratioP1;P1;durP2;ratioP2;P2;SDS_P1;SDS_P2;PMS_P1;PMS_P2;Temp;Humidity;BMP_temperature;BMP_pressure;BME280_temperature;BME280_humidity;BME280_pressure;Samples;Min_cycle;Max_cycle;Signal;HPM_P1;HPM_P2
2021/09/22 00:00:23;;;;;;;23.27;19.20;;;;;;;6.39;100.00;97248.91;1032895;28;20014;-50
2021/09/22 00:00:53;;;;;;;27.98;20.45;;;;;;;6.37;100.00;97235.09;1040665;28;20051;-51
2021/09/22 00:01:24;;;;;;;23.65;19.35;;;;;;;6.38;100.00;97241.97;1036921;28;20271;-51
2021/09/22 00:01:55;;;;;;;23.30;18.52;;;;;;;6.34;100.00;97238.63;1029045;28;20046;-51
2021/09/22 00:02:25;;;;;;;25.50;19.25;;;;;;;6.31;100.00;97241.34;1024928;29;20468;-51
2021/09/22 00:02:56;;;;;;;24.60;19.17;;;;;;;6.33;100.00;97241.31;1020550;29;20110;-51
2021/09/22 00:03:27;;;;;;;27.45;20.25;;;;;;;6.33;100.00;97249.94;1021056;28;20557;-50
2021/09/22 00:03:58;;;;;;;25.88;20.02;;;;;;;6.33;100.00;97238.69;1029079;28;20501;-50
2021/09/22 00:04:28;;;;;;;24.58;19.38;;;;;;;6.34;100.00;97243.81;1032999;28;20364;-51
2021/09/22 00:04:59;;;;;;;26.15;20.30;;;;;;;6.34;100.00;97241.22;1032877;28;20011;-51
2021/09/22 00:05:29;;;;;;;26.00;20.48;;;;;;;6.36;100.00;97246.38;1028521;28;20094;-50
2021/09/22 00:06:00;;;;;;;27.35;20.00;;;;;;;6.38;100.00;97237.66;1028206;28;20057;-49
2021/09/22 00:06:31;;;;;;;26.80;20.15;;;;;;;6.38;100.00;97236.78;1028232;28;20572;-50
2021/09/22 00:07:02;;;;;;;29.13;21.13;;;;;;;6.39;100.00;97244.53;1036344;28;20092;-50
2021/09/22 00:07:32;;;;;;;27.05;20.25;;;;;;;6.40;100.00;97237.56;1036002;28;20022;-50
2021/09/22 00:08:03;;;;;;;27.33;20.63;;;;;;;6.38;100.00;97235.03;1028376;28;20027;-51
2021/09/22 00:08:34;;;;;;;23.77;19.20;;;;;;;6.39;100.00;97238.50;1028614;28;20025;-50
2021/09/22 00:09:04;;;;;;;23.38;19.52;;;;;;;6.37;100.00;97238.53;1029110;28;20300;-50
2021/09/22 00:09:35;;;;;;;29.02;20.35;;;;;;;6.35;100.00;97235.13;1033245;28;20114;-51
2021/09/22 00:10:07;;;;;;;23.83;18.83;;;;;;;6.33;100.00;97239.53;1040663;28;20025;-51
2021/09/22 00:10:38;;;;;;;25.10;19.20;;;;;;;6.30;100.00;97239.63;1040752;28;20033;-50
2021/09/22 00:11:08;;;;;;;26.48;19.27;;;;;;;6.31;100.00;97240.50;1040986;28;20270;-52
2021/09/22 00:11:39;;;;;;;25.08;19.27;;;;;;;6.28;100.00;97246.63;1032672;28;20018;-51
2021/09/22 00:12:10;;;;;;;28.08;19.33;;;;;;;6.30;100.00;97238.78;1032656;28;20070;-50
2021/09/22 00:12:40;;;;;;;26.50;19.98;;;;;;;6.31;100.00;97245.72;1032046;28;20392;-51
2021/09/22 00:13:11;;;;;;;26.83;20.50;;;;;;;6.31;100.00;97248.31;1024613;28;20431;-50
2021/09/22 00:13:42;;;;;;;25.83;19.58;;;;;;;6.30;100.00;97239.63;1020451;29;20030;-50
2021/09/22 00:14:12;;;;;;;26.23;19.35;;;;;;;6.30;100.00;97244.84;1020980;29;20025;-49
2021/09/22 00:14:43;;;;;;;26.67;20.20;;;;;;;6.33;100.00;97242.16;1024365;29;20167;-51
2021/09/22 00:15:15;;;;;;;26.73;18.75;;;;;;;6.31;100.00;97243.09;1025189;28;20036;-51
2021/09/22 00:15:46;;;;;;;22.75;18.35;;;;;;;6.30;100.00;97237.03;1032780;28;20172;-51
2021/09/22 00:16:17;;;;;;;26.00;20.27;;;;;;;6.33;100.00;97251.72;1024921;29;20263;-52
2021/09/22 00:16:48;;;;;;;26.55;20.52;;;;;;;6.33;100.00;97249.13;1028644;28;20262;-51
2021/09/22 00:17:18;;;;;;;28.88;19.55;;;;;;;6.31;100.00;97245.72;1028758;28;20159;-50
2021/09/22 00:17:49;;;;;;;26.23;19.83;;;;;;;6.30;100.00;97239.63;1028662;28;20027;-49
2021/09/22 00:18:20;;;;;;;25.48;20.17;;;;;;;6.29;100.00;97237.94;1021379;29;20019;-51
2021/09/22 00:18:51;;;;;;;25.58;19.48;;;;;;;6.28;100.00;97236.22;1020924;29;20781;-50
2021/09/22 00:19:21;;;;;;;31.58;21.08;;;;;;;6.26;100.00;97243.25;1024989;28;20023;-52
2021/09/22 00:19:52;;;;;;;29.90;21.73;;;;;;;6.26;100.00;97239.78;1024779;29;20458;-51
2021/09/22 00:20:24;;;;;;;28.92;21.42;;;;;;;6.25;100.00;97235.47;1028892;28;20023;-50
2021/09/22 00:20:55;;;;;;;28.05;21.33;;;;;;;6.26;100.00;97237.19;1020732;29;20023;-50
2021/09/22 00:21:26;;;;;;;29.77;20.85;;;;;;;6.25;100.00;97238.94;1024839;29;20285;-52
2021/09/22 00:21:57;;;;;;;28.20;20.92;;;;;;;6.23;100.00;97239.00;1028740;28;20050;-51
2021/09/22 00:22:27;;;;;;;27.88;21.23;;;;;;;6.21;100.00;97233.00;1036566;28;20045;-51
2021/09/22 00:22:58;;;;;;;31.13;21.67;;;;;;;6.21;100.00;97238.19;1028634;28;20019;-52
2021/09/22 00:23:28;;;;;;;29.15;20.88;;;;;;;6.21;100.00;97235.59;1024652;28;20103;-51
2021/09/22 00:24:00;;;;;;;29.63;20.92;;;;;;;6.18;100.00;97234.84;1024915;29;20289;-51
2021/09/22 00:24:30;;;;;;;27.73;20.48;;;;;;;6.22;100.00;97241.63;1021067;29;20024;-51
2021/09/22 00:25:02;;;;;;;26.15;20.35;;;;;;;6.22;100.00;97242.47;1020644;29;20804;-52
2021/09/22 00:25:33;;;;;;;27.92;20.08;;;;;;;6.22;100.00;97244.25;1024668;29;20066;-51
2021/09/22 00:26:04;;;;;;;23.23;18.33;;;;;;;6.21;100.00;97238.19;1020850;29;20319;-51
2021/09/22 00:26:35;;;;;;;26.15;19.15;;;;;;;6.20;100.00;97239.09;1028584;28;20015;-51
2021/09/22 00:27:05;;;;;;;27.48;20.38;;;;;;;6.20;100.00;97240.84;1028647;28;20663;-51
2021/09/22 00:27:37;;;;;;;24.08;19.67;;;;;;;6.18;100.00;97240.03;1032830;28;20022;-50
2021/09/22 00:28:08;;;;;;;23.70;18.67;;;;;;;6.20;100.00;97243.44;1032627;28;20483;-51
2021/09/22 00:28:39;;;;;;;24.02;19.88;;;;;;;6.19;100.00;97236.53;1036646;28;20265;-50
2021/09/22 00:29:10;;;;;;;27.08;20.30;;;;;;;6.16;100.00;97236.63;1028761;28;20110;-50
2021/09/22 00:29:40;;;;;;;29.52;19.88;;;;;;;6.17;100.00;97240.94;1032793;28;20022;-51
2021/09/22 00:30:12;;;;;;;26.08;18.13;;;;;;;6.16;100.00;97242.69;1032783;28;20269;-51
2021/09/22 00:30:43;;;;;;;24.05;18.95;;;;;;;6.16;100.00;97241.84;1036776;28;20105;-52
2021/09/22 00:31:16;;;;;;;26.73;20.23;;;;;;;6.16;100.00;97244.44;1037040;28;20293;-51
2021/09/22 00:31:47;;;;;;;25.67;17.75;;;;;;;6.10;100.00;97248.09;1032611;28;20268;-51
2021/09/22 00:32:18;;;;;;;25.17;19.63;;;;;;;6.14;100.00;97248.84;1024937;28;20285;-50
2021/09/22 00:32:50;;;;;;;26.45;19.63;;;;;;;6.15;100.00;97250.53;1029067;28;20739;-50
2021/09/22 00:33:21;;;;;;;23.60;18.65;;;;;;;6.15;100.00;97253.13;1029883;28;20014;-50
2021/09/22 00:33:51;;;;;;;27.25;19.30;;;;;;;6.15;100.00;97253.13;1037132;28;20367;-50
2021/09/22 00:34:22;;;;;;;23.52;18.98;;;;;;;6.15;100.00;97253.13;1024904;29;20070;-52
2021/09/22 00:34:53;;;;;;;23.73;18.58;;;;;;;6.14;100.00;97251.44;1024748;29;20476;-50
2021/09/22 00:35:24;;;;;;;28.35;19.70;;;;;;;6.12;100.00;97248.91;1020726;29;20024;-51
2021/09/22 00:35:54;;;;;;;26.83;19.08;;;;;;;6.10;100.00;97248.09;1020751;28;20267;-50
2021/09/22 00:36:25;;;;;;;25.27;19.73;;;;;;;6.12;100.00;97248.03;1024596;29;20022;-51
2021/09/22 00:36:56;;;;;;;22.67;18.63;;;;;;;6.10;100.00;97247.22;1020883;29;20051;-51
2021/09/22 00:37:27;;;;;;;24.83;18.60;;;;;;;6.09;100.00;97245.53;1025180;28;20020;-52
2021/09/22 00:37:57;;;;;;;26.25;19.80;;;;;;;6.11;100.00;97244.56;1025318;28;20019;-51
2021/09/22 00:38:28;;;;;;;25.90;19.13;;;;;;;6.11;100.00;97247.19;1028630;28;20282;-51
2021/09/22 00:38:59;;;;;;;25.00;18.85;;;;;;;6.12;100.00;97245.41;1028923;28;20157;-50
2021/09/22 00:39:30;;;;;;;24.08;18.75;;;;;;;6.08;100.00;97244.69;1032908;28;20087;-51
2021/09/22 00:40:00;;;;;;;21.95;18.15;;;;;;;6.10;100.00;97244.63;1032540;28;20049;-52
2021/09/22 00:40:31;;;;;;;23.80;18.58;;;;;;;6.09;100.00;97240.34;1032499;28;20530;-50
2021/09/22 00:41:02;;;;;;;23.73;19.15;;;;;;;6.10;100.00;97239.41;1028732;28;20034;-51
2021/09/22 00:41:33;;;;;;;20.98;16.98;;;;;;;6.09;100.00;97240.34;1028787;28;20046;-52
2021/09/22 00:42:05;;;;;;;26.00;18.15;;;;;;;6.09;100.00;97240.34;1028831;28;20023;-51
2021/09/22 00:42:35;;;;;;;24.27;19.58;;;;;;;6.09;100.00;97240.34;1036921;28;20018;-51
2021/09/22 00:43:06;;;;;;;25.02;19.10;;;;;;;6.09;100.00;97241.19;1032899;28;20352;-50
2021/09/22 00:43:37;;;;;;;22.38;17.73;;;;;;;6.08;100.00;97238.63;1032939;28;20154;-50
2021/09/22 00:44:08;;;;;;;24.02;18.38;;;;;;;6.10;100.00;97231.59;1028780;28;20046;-50
2021/09/22 00:44:56;;;;;;;21.63;18.42;;;;;;;6.11;100.00;97228.97;1024684;28;20267;-52
2021/09/22 00:45:27;;;;;;;25.38;19.10;;;;;;;6.12;100.00;97227.19;1031200;28;20014;-50
2021/09/22 00:46:04;;;;;;;28.05;19.85;;;;;;;6.12;100.00;97230.69;1031277;28;20253;-51
2021/09/22 00:46:34;;;;;;;24.17;19.35;;;;;;;6.12;100.00;97227.19;1036038;28;20032;-52
2021/09/22 00:47:05;;;;;;;23.48;19.00;;;;;;;6.08;100.00;97229.09;1025598;28;20310;-51
2021/09/22 00:47:36;;;;;;;23.88;19.45;;;;;;;6.08;100.00;97228.22;1025661;28;20104;-51
2021/09/22 00:48:07;;;;;;;24.40;17.73;;;;;;;6.07;100.00;97227.38;1024609;29;20654;-50
2021/09/22 00:48:37;;;;;;;24.00;18.17;;;;;;;6.05;100.00;97234.38;1025559;28;20020;-52
2021/09/22 00:49:08;;;;;;;23.98;19.65;;;;;;;6.05;100.00;97229.16;1032860;28;20520;-50
2021/09/22 00:49:39;;;;;;;23.63;19.15;;;;;;;6.07;100.00;97226.53;1033308;28;20541;-50
2021/09/22 00:50:10;;;;;;;24.42;19.15;;;;;;;6.07;100.00;97229.97;1028520;28;20098;-51
2021/09/22 00:50:41;;;;;;;23.20;18.70;;;;;;;6.07;100.00;97231.72;1029067;28;20023;-51
2021/09/22 00:51:12;;;;;;;25.95;19.00;;;;;;;6.09;100.00;97227.31;1032827;28;20265;-51
2021/09/22 00:51:43;;;;;;;26.55;20.23;;;;;;;6.09;100.00;97224.72;1032398;28;20060;-52
2021/09/22 00:52:14;;;;;;;25.05;19.92;;;;;;;6.11;100.00;97225.53;1028562;28;20274;-51
2021/09/22 00:52:45;;;;;;;24.88;19.13;;;;;;;6.09;100.00;97224.72;1028618;28;20067;-50
2021/09/22 00:53:15;;;;;;;28.88;21.15;;;;;;;6.07;100.00;97222.16;1032521;28;20258;-51
2021/09/22 00:53:46;;;;;;;28.00;22.05;;;;;;;6.09;100.00;97219.50;1032732;28;20018;-51
2021/09/22 00:54:17;;;;;;;30.88;21.73;;;;;;;6.09;100.00;97222.97;1032839;28;20486;-51
2021/09/22 00:54:48;;;;;;;25.48;19.83;;;;;;;6.09;100.00;97215.16;1032772;28;20323;-50
2021/09/22 00:55:19;;;;;;;26.50;20.20;;;;;;;6.11;100.00;97221.16;1032832;28;20468;-51
2021/09/22 00:55:51;;;;;;;27.10;20.52;;;;;;;6.11;100.00;97220.31;1032913;28;20237;-51
2021/09/22 00:56:22;;;;;;;26.83;20.17;;;;;;;6.10;100.00;97224.69;1028959;28;20042;-50
2021/09/22 00:56:52;;;;;;;25.85;20.10;;;;;;;6.08;100.00;97223.88;1025145;28;20294;-49
2021/09/22 00:57:23;;;;;;;25.80;18.80;;;;;;;6.07;100.00;97223.91;1028787;28;20468;-50
2021/09/22 00:57:55;;;;;;;24.55;19.65;;;;;;;6.05;100.00;97218.75;1029357;28;20094;-51
2021/09/22 00:58:26;;;;;;;25.52;21.00;;;;;;;6.05;100.00;97223.97;1032768;28;20014;-51
2021/09/22 00:58:57;;;;;;;26.02;20.30;;;;;;;6.05;100.00;97226.56;1036910;28;20261;-50
2021/09/22 00:59:27;;;;;;;25.00;19.25;;;;;;;6.06;100.00;97227.41;1036762;28;20339;-52
2021/09/22 00:59:58;;;;;;;27.08;19.95;;;;;;;6.07;100.00;97226.53;1033159;28;20028;-50
2021/09/22 01:00:29;;;;;;;27.42;20.20;;;;;;;6.06;100.00;97224.81;1028643;28;20015;-51
2021/09/22 01:01:00;;;;;;;23.45;18.98;;;;;;;6.08;100.00;97233.41;1028570;28;20025;-51
2021/09/22 01:01:32;;;;;;;29.35;20.52;;;;;;;6.07;100.00;97227.38;1032291;28;20029;-51
2021/09/22 01:02:03;;;;;;;28.33;22.00;;;;;;;6.07;100.00;97229.97;1036593;28;20257;-51
2021/09/22 01:02:34;;;;;;;28.02;20.55;;;;;;;6.08;100.00;97223.88;1028738;28;20259;-52
2021/09/22 01:03:16;;;;;;;27.88;21.52;;;;;;;6.10;100.00;97226.41;1032863;28;20254;-51
2021/09/22 01:03:47;;;;;;;29.98;21.60;;;;;;;6.07;100.00;97229.13;1038695;28;20010;-51
2021/09/22 01:04:18;;;;;;;26.13;20.30;;;;;;;6.09;100.00;97230.78;1034623;28;20264;-51
2021/09/22 01:04:48;;;;;;;27.55;20.67;;;;;;;6.09;100.00;97224.72;1032609;28;20348;-50
2021/09/22 01:05:22;;;;;;;27.67;21.27;;;;;;;6.09;100.00;97227.31;1032621;28;20042;-51
2021/09/22 01:05:53;;;;;;;27.73;20.58;;;;;;;6.10;100.00;97224.69;1030004;28;20049;-51
2021/09/22 01:06:24;;;;;;;31.73;19.88;;;;;;;6.11;100.00;97220.31;1036812;28;20260;-50
2021/09/22 01:06:54;;;;;;;26.13;19.70;;;;;;;6.09;100.00;97230.78;1033020;28;20015;-50
2021/09/22 01:07:25;;;;;;;27.83;20.35;;;;;;;6.07;100.00;97227.38;1028879;28;20480;-50
2021/09/22 01:07:56;;;;;;;28.40;21.33;;;;;;;6.07;100.00;97227.38;1024879;28;20102;-52
2021/09/22 01:08:29;;;;;;;29.63;21.10;;;;;;;6.08;100.00;97234.28;1028704;28;20559;-51
2021/09/22 01:09:00;;;;;;;33.00;22.83;;;;;;;6.08;100.00;97229.09;1020472;29;20054;-51
2021/09/22 01:09:31;;;;;;;29.63;22.13;;;;;;;6.08;100.00;97230.81;1024724;29;20271;-50
2021/09/22 01:10:02;;;;;;;28.55;21.13;;;;;;;6.07;100.00;97231.72;1025283;28;20259;-51
2021/09/22 01:10:33;;;;;;;28.83;20.50;;;;;;;6.07;100.00;97223.91;1029852;28;20345;-50
2021/09/22 01:11:04;;;;;;;27.55;20.70;;;;;;;6.08;100.00;97228.22;1028732;28;20351;-51
2021/09/22 01:11:35;;;;;;;29.15;21.33;;;;;;;6.08;100.00;97234.28;1028962;28;20025;-51
2021/09/22 01:12:06;;;;;;;29.98;21.60;;;;;;;6.07;100.00;97229.13;1032908;28;20025;-51
2021/09/22 01:12:37;;;;;;;27.77;20.50;;;;;;;6.06;100.00;97233.44;1032900;28;20250;-51
2021/09/22 01:13:07;;;;;;;29.33;22.02;;;;;;;6.07;100.00;97224.75;1036030;28;20171;-51
2021/09/22 01:13:38;;;;;;;25.73;21.05;;;;;;;6.07;100.00;97231.72;1024701;28;20326;-52
2021/09/22 01:14:08;;;;;;;25.58;20.27;;;;;;;6.06;100.00;97233.44;1028620;28;20015;-51
2021/09/22 01:14:39;;;;;;;29.08;20.75;;;;;;;6.07;100.00;97229.13;1036379;28;20045;-49
2021/09/22 01:15:10;;;;;;;28.30;21.02;;;;;;;6.08;100.00;97236.88;1028818;28;20078;-50
2021/09/22 01:15:43;;;;;;;32.63;23.27;;;;;;;6.07;100.00;97235.16;1032556;28;20081;-50
2021/09/22 01:16:14;;;;;;;30.60;21.88;;;;;;;6.08;100.00;97230.81;1028517;28;20023;-51
2021/09/22 01:16:45;;;;;;;31.38;21.67;;;;;;;6.07;100.00;97231.72;1024600;28;20340;-51
2021/09/22 01:17:19;;;;;;;27.42;21.33;;;;;;;6.07;100.00;97237.78;1028580;28;20023;-51
2021/09/22 01:17:51;;;;;;;28.05;21.35;;;;;;;6.05;100.00;97238.72;1024629;29;20263;-50
2021/09/22 01:18:23;;;;;;;26.85;21.17;;;;;;;6.06;100.00;97230.84;1028683;28;20255;-51
2021/09/22 01:18:54;;;;;;;26.17;20.70;;;;;;;6.07;100.00;97237.78;1028917;28;20306;-50
2021/09/22 01:19:27;;;;;;;30.30;21.23;;;;;;;6.07;100.00;97235.16;1033394;28;20296;-51
2021/09/22 01:20:00;;;;;;;27.67;20.73;;;;;;;6.08;100.00;97225.59;1022064;28;20108;-50
2021/09/22 01:20:32;;;;;;;27.98;20.73;;;;;;;6.08;100.00;97228.22;1030184;28;20357;-52
2021/09/22 01:21:02;;;;;;;30.85;21.52;;;;;;;6.06;100.00;97225.66;1029966;28;20254;-52
2021/09/22 01:21:33;;;;;;;29.23;22.25;;;;;;;6.08;100.00;97231.69;1025999;29;20255;-51
2021/09/22 01:22:04;;;;;;;26.75;20.42;;;;;;;6.09;100.00;97228.16;1025860;29;20493;-51
2021/09/22 01:22:34;;;;;;;28.48;21.33;;;;;;;6.11;100.00;97234.16;1026197;28;20067;-52
2021/09/22 01:23:05;;;;;;;28.10;21.70;;;;;;;6.08;100.00;97234.28;1025587;29;20019;-51
2021/09/22 01:23:36;;;;;;;25.05;19.65;;;;;;;6.08;100.00;97230.81;1026510;28;20018;-51
2021/09/22 01:24:07;;;;;;;26.23;20.05;;;;;;;6.08;100.00;97225.59;1030354;28;20308;-51
2021/09/22 01:24:37;;;;;;;29.23;20.63;;;;;;;6.07;100.00;97232.56;1026688;28;20053;-51
2021/09/22 01:25:10;;;;;;;28.92;20.83;;;;;;;6.07;100.00;97227.38;1034060;28;20168;-50
2021/09/22 01:25:43;;;;;;;29.75;20.40;;;;;;;6.07;100.00;97234.31;1034481;28;20018;-51
2021/09/22 01:26:14;;;;;;;26.02;20.73;;;;;;;6.08;100.00;97228.22;1027489;28;20318;-50
2021/09/22 01:26:45;;;;;;;25.75;19.40;;;;;;;6.09;100.00;97230.78;1029169;28;20332;-51
2021/09/22 01:27:15;;;;;;;25.42;18.63;;;;;;;6.10;100.00;97231.59;1033828;28;20011;-51
2021/09/22 01:27:48;;;;;;;23.42;18.25;;;;;;;6.11;100.00;97233.31;1034255;28;20281;-50
2021/09/22 01:28:21;;;;;;;23.83;19.67;;;;;;;6.09;100.00;97233.38;1034081;28;20283;-51
2021/09/22 01:28:51;;;;;;;25.77;19.35;;;;;;;6.12;100.00;97224.59;1030530;28;20366;-49
2021/09/22 01:29:22;;;;;;;27.10;19.85;;;;;;;6.12;100.00;97233.28;1029587;28;20254;-50
2021/09/22 01:29:53;;;;;;;26.25;20.17;;;;;;;6.13;100.00;97229.75;1034409;28;20014;-51
2021/09/22 01:30:24;;;;;;;26.88;21.38;;;;;;;6.15;100.00;97232.31;1033631;28;20595;-50
2021/09/22 01:30:55;;;;;;;22.48;19.05;;;;;;;6.16;100.00;97232.28;1033474;28;20033;-51
2021/09/22 01:31:25;;;;;;;31.42;19.85;;;;;;;6.12;100.00;97228.06;1037306;28;20014;-50
2021/09/22 01:31:56;;;;;;;24.55;18.70;;;;;;;6.11;100.00;97225.53;1037727;28;20049;-50
2021/09/22 01:32:27;;;;;;;25.75;19.55;;;;;;;6.11;100.00;97231.56;1029950;28;20022;-49
2021/09/22 01:33:01;;;;;;;30.13;21.42;;;;;;;6.10;100.00;97223.81;1025825;29;20030;-51
2021/09/22 01:33:31;;;;;;;29.17;21.52;;;;;;;6.07;100.00;97227.38;1025989;29;20027;-51
2021/09/22 01:34:02;;;;;;;27.33;20.73;;;;;;;6.06;100.00;97227.41;1033788;28;20389;-51
2021/09/22 01:34:33;;;;;;;26.85;20.65;;;;;;;6.06;100.00;97222.19;1033884;28;20053;-51
2021/09/22 01:35:04;;;;;;;27.10;19.90;;;;;;;6.03;100.00;97229.22;1034237;28;20076;-50
2021/09/22 01:35:36;;;;;;;27.38;20.42;;;;;;;6.02;100.00;97221.44;1037967;28;20018;-50
2021/09/22 01:36:11;;;;;;;25.23;19.58;;;;;;;6.00;100.00;97215.44;1033723;28;20169;-51
2021/09/22 01:36:42;;;;;;;26.50;20.55;;;;;;;6.01;100.00;97223.22;1034152;28;20838;-51
2021/09/22 01:37:12;;;;;;;24.83;20.08;;;;;;;6.04;100.00;97224.84;1031809;28;20297;-50
2021/09/22 01:37:43;;;;;;;25.73;19.58;;;;;;;6.05;100.00;97226.56;1034612;28;20113;-50
2021/09/22 01:38:15;;;;;;;27.70;20.38;;;;;;;6.03;100.00;97220.56;1033980;28;20032;-50
2021/09/22 01:38:46;;;;;;;27.05;20.13;;;;;;;6.02;100.00;97216.25;1030217;28;20077;-51
2021/09/22 01:39:17;;;;;;;25.40;18.33;;;;;;;6.00;100.00;97226.69;1025862;28;20255;-50
2021/09/22 01:39:48;;;;;;;25.48;19.42;;;;;;;6.00;100.00;97224.09;1033903;28;20022;-51
2021/09/22 01:40:19;;;;;;;25.08;19.27;;;;;;;6.03;100.00;97223.16;1037820;28;20020;-49
2021/09/22 01:41:06;;;;;;;29.48;21.05;;;;;;;6.03;100.00;97226.59;1038168;28;20103;-52
2021/09/22 01:41:37;;;;;;;29.40;20.33;;;;;;;6.01;100.00;97220.59;1029796;28;20018;-50
2021/09/22 01:42:09;;;;;;;23.92;18.92;;;;;;;5.98;100.00;97223.28;1026138;29;20338;-50
2021/09/22 01:42:39;;;;;;;24.98;19.38;;;;;;;5.98;100.00;97220.69;1029672;28;20023;-52
2021/09/22 01:43:10;;;;;;;30.55;21.10;;;;;;;5.97;100.00;97221.59;1033615;28;20304;-50
2021/09/22 01:43:41;;;;;;;31.52;22.35;;;;;;;5.96;100.00;97219.88;1029942;28;20428;-50
2021/09/22 01:44:12;;;;;;;30.05;20.85;;;;;;;5.97;100.00;97224.22;1033588;28;20033;-50
2021/09/22 01:44:42;;;;;;;31.30;21.83;;;;;;;5.96;100.00;97219.88;1033349;28;20102;-50
2021/09/22 01:45:14;;;;;;;28.38;21.17;;;;;;;5.97;100.00;97218.16;1033393;28;20049;-50
2021/09/22 01:45:45;;;;;;;29.70;21.23;;;;;;;5.98;100.00;97222.44;1029776;28;20015;-51
2021/09/22 01:46:16;;;;;;;30.13;21.52;;;;;;;5.98;100.00;97215.50;1026683;28;20892;-52
2021/09/22 01:46:46;;;;;;;30.45;20.88;;;;;;;5.98;100.00;97217.25;1022692;28;20032;-50
2021/09/22 01:47:17;;;;;;;32.22;21.95;;;;;;;5.97;100.00;97219.00;1026273;28;20019;-51
2021/09/22 01:47:48;;;;;;;29.15;20.58;;;;;;;5.95;100.00;97210.41;1025873;29;20118;-51
2021/09/22 01:48:18;;;;;;;26.42;19.77;;;;;;;5.95;100.00;97212.09;1030211;28;20511;-50
2021/09/22 01:48:49;;;;;;;27.90;20.50;;;;;;;5.94;100.00;97220.81;1030033;28;20351;-51
2021/09/22 01:49:23;;;;;;;27.88;21.70;;;;;;;5.94;100.00;97226.88;1030122;28;20115;-52
2021/09/22 01:50:00;;;;;;;32.75;21.08;;;;;;;5.92;100.00;97220.88;1034111;28;20077;-50
2021/09/22 01:50:31;;;;;;;28.23;20.73;;;;;;;5.92;100.00;97218.25;1031276;28;20278;-50
2021/09/22 01:51:02;;;;;;;28.20;20.15;;;;;;;5.94;100.00;97228.63;1027453;28;20254;-50
2021/09/22 01:51:32;;;;;;;26.70;19.48;;;;;;;5.97;100.00;97224.22;1025840;29;20170;-51
2021/09/22 01:52:03;;;;;;;26.30;19.83;;;;;;;5.98;100.00;97225.91;1033921;28;20355;-50
2021/09/22 01:52:34;;;;;;;25.52;19.63;;;;;;;5.98;100.00;97222.44;1033805;28;20060;-51
2021/09/22 01:53:05;;;;;;;28.02;20.90;;;;;;;5.97;100.00;97226.81;1033870;28;20106;-50
2021/09/22 01:53:36;;;;;;;31.88;20.90;;;;;;;5.94;100.00;97229.47;1030163;28;20023;-51
2021/09/22 01:54:06;;;;;;;33.08;23.17;;;;;;;5.94;100.00;97229.47;1030168;28;20822;-51
2021/09/22 01:54:37;;;;;;;34.92;23.50;;;;;;;5.93;100.00;97221.69;1025956;28;20047;-50
2021/09/22 01:55:09;;;;;;;31.23;21.00;;;;;;;5.94;100.00;97231.22;1026062;28;20086;-52
2021/09/22 01:55:39;;;;;;;31.15;21.90;;;;;;;5.93;100.00;97229.50;1029707;28;20278;-50
2021/09/22 01:56:10;;;;;;;31.88;21.80;;;;;;;5.92;100.00;97228.66;1029829;28;20266;-49
2021/09/22 01:56:41;;;;;;;30.70;22.65;;;;;;;5.92;100.00;97231.28;1033094;28;20101;-50
2021/09/22 01:57:12;;;;;;;30.77;21.25;;;;;;;5.92;100.00;97223.47;1033236;28;20049;-49
2021/09/22 01:57:42;;;;;;;28.23;21.65;;;;;;;5.91;100.00;97229.59;1029829;28;20030;-51
2021/09/22 01:58:13;;;;;;;28.00;20.33;;;;;;;5.93;100.00;97235.59;1030138;28;20641;-51
2021/09/22 01:58:44;;;;;;;28.08;20.23;;;;;;;5.91;100.00;97236.50;1022043;29;20028;-51
2021/09/22 01:59:16;;;;;;;29.88;22.15;;;;;;;5.89;100.00;97236.56;1022432;28;20789;-50
2021/09/22 01:59:46;;;;;;;33.08;22.73;;;;;;;5.91;100.00;97237.38;1022386;29;20016;-51
2021/09/22 02:00:17;;;;;;;30.85;22.35;;;;;;;5.91;100.00;97245.19;1022772;28;20335;-50
2021/09/22 02:00:48;;;;;;;26.25;21.65;;;;;;;5.90;100.00;97238.28;1034096;28;20078;-51
2021/09/22 02:01:19;;;;;;;28.45;21.30;;;;;;;5.90;100.00;97237.44;1026047;28;20337;-50
2021/09/22 02:01:49;;;;;;;30.60;22.63;;;;;;;5.89;100.00;97236.56;1029801;28;20121;-50
2021/09/22 02:02:21;;;;;;;27.92;20.63;;;;;;;5.89;100.00;97238.31;1030069;28;20027;-52
2021/09/22 02:02:51;;;;;;;29.90;22.42;;;;;;;5.86;100.00;97236.66;1026215;28;20388;-50
2021/09/22 02:03:22;;;;;;;32.45;22.02;;;;;;;5.88;100.00;97236.63;1025967;28;20354;-50
2021/09/22 02:03:53;;;;;;;32.63;22.30;;;;;;;5.88;100.00;97237.47;1029896;28;20026;-50
2021/09/22 02:04:24;;;;;;;29.38;20.63;;;;;;;5.89;100.00;97235.72;1029860;28;20554;-50
2021/09/22 02:04:55;;;;;;;24.23;19.85;;;;;;;5.93;100.00;97229.50;1029925;28;20254;-51
2021/09/22 02:05:26;;;;;;;25.60;19.80;;;;;;;5.93;100.00;97227.78;1033413;28;20134;-50
2021/09/22 02:05:56;;;;;;;26.38;20.08;;;;;;;5.95;100.00;97227.72;1030141;28;20031;-52
2021/09/22 02:06:27;;;;;;;26.23;20.17;;;;;;;5.97;100.00;97232.00;1034115;28;20032;-50
2021/09/22 02:06:58;;;;;;;25.80;19.15;;;;;;;5.97;100.00;97226.81;1030095;28;20076;-50
2021/09/22 02:07:28;;;;;;;25.27;19.83;;;;;;;5.96;100.00;97225.09;1033868;28;20157;-50
2021/09/22 02:07:59;;;;;;;25.88;20.00;;;;;;;5.98;100.00;97219.84;1026112;28;20027;-50
2021/09/22 02:08:31;;;;;;;26.02;20.05;;;;;;;5.96;100.00;97217.28;1030075;28;20019;-50
2021/09/22 02:09:01;;;;;;;26.98;19.92;;;;;;;5.94;100.00;97224.25;1029755;28;20029;-49
2021/09/22 02:09:32;;;;;;;28.83;20.33;;;;;;;5.92;100.00;97217.41;1025663;29;20274;-51
2021/09/22 02:10:03;;;;;;;28.00;20.33;;;;;;;5.91;100.00;97224.38;1030018;28;20098;-51
2021/09/22 02:10:34;;;;;;;27.05;20.92;;;;;;;5.89;100.00;97222.69;1030151;28;20042;-50
2021/09/22 02:11:05;;;;;;;31.10;22.15;;;;;;;5.88;100.00;97219.25;1042028;28;20303;-51
2021/09/22 02:11:35;;;;;;;29.25;20.05;;;;;;;5.89;100.00;97214.91;1029966;28;20408;-50
2021/09/22 02:12:07;;;;;;;25.98;20.02;;;;;;;5.90;100.00;97221.81;1025825;29;20497;-51
2021/09/22 02:12:38;;;;;;;26.02;20.83;;;;;;;5.90;100.00;97214.00;1029986;28;20022;-51
2021/09/22 02:13:09;;;;;;;27.08;21.08;;;;;;;5.87;100.00;97220.16;1029441;28;20773;-50
2021/09/22 02:13:39;;;;;;;26.77;21.60;;;;;;;5.87;100.00;97217.53;1025901;29;20027;-50
2021/09/22 02:14:10;;;;;;;27.40;21.52;;;;;;;5.87;100.00;97220.16;1029923;28;20097;-50
2021/09/22 02:14:41;;;;;;;28.42;21.48;;;;;;;5.88;100.00;97216.66;1025567;29;20058;-50
2021/09/22 02:15:11;;;;;;;33.88;22.17;;;;;;;5.86;100.00;97218.47;1025803;29;20110;-52
2021/09/22 02:15:42;;;;;;;28.25;20.05;;;;;;;5.87;100.00;97219.31;1025699;29;20026;-51
2021/09/22 02:16:13;;;;;;;25.20;20.02;;;;;;;5.85;100.00;97222.78;1025910;29;20125;-52
2021/09/22 02:16:44;;;;;;;27.77;21.33;;;;;;;5.87;100.00;97225.34;1021646;29;20032;-51
2021/09/22 02:17:16;;;;;;;29.15;21.85;;;;;;;5.84;100.00;97222.88;1021720;29;20079;-51
2021/09/22 02:17:46;;;;;;;31.15;22.88;;;;;;;5.82;100.00;97222.91;1022450;28;20271;-49
2021/09/22 02:18:17;;;;;;;30.48;23.60;;;;;;;5.83;100.00;97223.75;1026621;28;20047;-52
2021/09/22 02:18:48;;;;;;;29.92;21.92;;;;;;;5.85;100.00;97222.78;1034315;28;20015;-50
2021/09/22 02:19:20;;;;;;;30.08;22.08;;;;;;;5.86;100.00;97226.25;1033829;28;20022;-50
2021/09/22 02:19:50;;;;;;;28.33;21.73;;;;;;;5.87;100.00;97222.75;1025787;28;20393;-50
2021/09/22 02:20:21;;;;;;;27.48;20.63;;;;;;;5.86;100.00;97226.25;1026408;28;20343;-50
2021/09/22 02:20:52;;;;;;;28.50;21.73;;;;;;;5.87;100.00;97227.94;1030035;28;20018;-50
2021/09/22 02:21:22;;;;;;;27.15;20.85;;;;;;;5.84;100.00;97223.69;1029811;28;20027;-49
2021/09/22 02:21:53;;;;;;;25.08;19.92;;;;;;;5.82;100.00;97227.25;1029671;28;20046;-50
2021/09/22 02:22:24;;;;;;;27.13;21.20;;;;;;;5.80;100.00;97227.31;1026017;28;20393;-51
2021/09/22 02:22:55;;;;;;;26.20;19.80;;;;;;;5.77;100.00;97232.59;1021550;28;20071;-50
2021/09/22 02:23:25;;;;;;;26.95;20.85;;;;;;;5.78;100.00;97238.63;1026118;28;20277;-51